createdAt,value
2018-09-21T00:01:16.494Z,18.70
2018-09-21T00:03:49.972Z,18.70
2018-09-21T00:06:19.497Z,18.70
2018-09-21T00:08:48.725Z,18.70
2018-09-21T00:11:24.049Z,18.60
2018-09-21T00:13:53.398Z,18.60
2018-09-21T00:16:22.752Z,18.60
2018-09-21T00:18:52.051Z,18.50
2018-09-21T00:21:21.240Z,18.50
2018-09-21T00:23:50.361Z,18.50
2018-09-21T00:26:19.670Z,18.50
2018-09-21T00:28:48.774Z,18.50
2018-09-21T00:31:18.016Z,18.50
2018-09-21T00:33:47.174Z,18.40
2018-09-21T00:36:16.451Z,18.50
2018-09-21T00:38:45.650Z,18.40
2018-09-21T00:41:14.796Z,18.50
2018-09-21T00:43:44.039Z,18.40
2018-09-21T00:46:13.383Z,18.40
2018-09-21T00:48:42.655Z,18.40
2018-09-21T00:51:11.959Z,18.40
2018-09-21T00:53:41.144Z,18.40
2018-09-21T00:56:10.448Z,18.30
2018-09-21T00:58:40.069Z,18.30
2018-09-21T01:01:09.429Z,18.30
2018-09-21T01:03:38.745Z,18.20
2018-09-21T01:06:07.947Z,18.20
2018-09-21T01:08:37.176Z,18.20
2018-09-21T01:11:06.587Z,18.20
2018-09-21T01:13:35.863Z,18.10
2018-09-21T01:16:05.387Z,18.20
2018-09-21T01:18:34.805Z,18.20
2018-09-21T01:21:04.187Z,18.10
2018-09-21T01:23:33.538Z,18.20
2018-09-21T01:26:02.895Z,18.20
2018-09-21T01:28:32.273Z,18.20
2018-09-21T01:31:01.889Z,18.20
2018-09-21T01:33:31.205Z,18.20
2018-09-21T01:36:00.520Z,18.20
2018-09-21T01:38:29.961Z,18.20
2018-09-21T01:40:59.094Z,18.20
2018-09-21T01:43:28.508Z,18.20
2018-09-21T01:45:57.747Z,18.20
2018-09-21T01:48:26.990Z,18.20
2018-09-21T01:50:56.224Z,18.20
2018-09-21T01:53:25.519Z,18.20
2018-09-21T01:55:54.653Z,18.20
2018-09-21T01:58:24.037Z,18.20
2018-09-21T02:00:53.378Z,18.20
2018-09-21T02:03:22.469Z,18.20
2018-09-21T02:05:51.890Z,18.20
2018-09-21T02:08:21.096Z,18.20
2018-09-21T02:10:50.368Z,18.20
2018-09-21T02:13:19.752Z,18.20
2018-09-21T02:15:49.023Z,18.10
2018-09-21T02:18:18.469Z,18.10
2018-09-21T02:20:47.654Z,18.10
2018-09-21T02:23:16.881Z,18.10
2018-09-21T02:25:45.993Z,18.20
2018-09-21T02:28:15.095Z,18.10
2018-09-21T02:30:44.220Z,18.20
2018-09-21T02:33:13.506Z,18.20
2018-09-21T02:35:47.367Z,18.20
2018-09-21T02:38:16.609Z,18.10
2018-09-21T02:40:45.836Z,18.20
2018-09-21T02:43:15.216Z,18.10
2018-09-21T02:45:44.406Z,18.20
2018-09-21T02:48:13.454Z,18.20
2018-09-21T02:50:42.653Z,18.20
2018-09-21T02:53:11.903Z,18.20
2018-09-21T02:55:41.089Z,18.10
2018-09-21T02:58:10.274Z,18.10
2018-09-21T03:00:39.520Z,18.20
2018-09-21T03:03:08.912Z,18.20
2018-09-21T03:05:38.232Z,18.20
2018-09-21T03:08:07.515Z,18.20
2018-09-21T03:10:36.629Z,18.20
2018-09-21T03:13:05.858Z,18.10
2018-09-21T03:15:35.172Z,18.20
2018-09-21T03:18:05.817Z,18.10
2018-09-21T03:20:35.215Z,18.10
2018-09-21T03:23:04.605Z,18.10
2018-09-21T03:25:33.956Z,18.20
2018-09-21T03:28:03.205Z,18.20
2018-09-21T03:30:32.446Z,18.10
2018-09-21T03:33:01.784Z,18.10
2018-09-21T03:35:31.058Z,18.10
2018-09-21T03:38:00.103Z,18.10
2018-09-21T03:40:29.393Z,18.20
2018-09-21T03:42:58.810Z,18.20
2018-09-21T03:45:28.175Z,18.20
2018-09-21T03:47:57.449Z,18.30
2018-09-21T03:50:29.017Z,18.20
2018-09-21T03:52:58.548Z,18.30
2018-09-21T03:55:27.645Z,18.30
2018-09-21T03:57:56.896Z,18.30
2018-09-21T04:00:26.173Z,18.30
2018-09-21T04:02:55.286Z,18.30
2018-09-21T04:05:24.470Z,18.30
2018-09-21T04:07:53.727Z,18.30
2018-09-21T04:10:23.069Z,18.30
2018-09-21T04:12:52.184Z,18.30
2018-09-21T04:15:21.507Z,18.30
2018-09-21T04:17:50.648Z,18.30
2018-09-21T04:20:19.905Z,18.30
2018-09-21T04:22:59.323Z,18.30
2018-09-21T04:25:28.598Z,18.30
2018-09-21T04:27:58.150Z,18.40
2018-09-21T04:30:27.828Z,18.40
2018-09-21T04:32:57.478Z,18.40
2018-09-21T04:35:26.765Z,18.40
2018-09-21T04:37:56.078Z,18.40
2018-09-21T04:40:25.430Z,18.40
2018-09-21T04:42:54.743Z,18.40
2018-09-21T04:45:23.692Z,18.50
2018-09-21T04:47:52.607Z,18.40
2018-09-21T04:50:21.592Z,18.50
2018-09-21T04:52:50.568Z,18.40
2018-09-21T04:55:23.763Z,18.50
2018-09-21T04:57:53.001Z,18.50
2018-09-21T05:00:22.230Z,18.60
2018-09-21T05:02:51.583Z,18.60
2018-09-21T05:05:20.765Z,18.70
2018-09-21T05:07:49.893Z,18.70
2018-09-21T05:10:19.140Z,18.70
2018-09-21T05:12:48.544Z,18.70
2018-09-21T05:15:17.766Z,18.70
2018-09-21T05:17:47.122Z,18.80
2018-09-21T05:20:16.466Z,18.80
2018-09-21T05:22:45.718Z,18.80
2018-09-21T05:25:14.747Z,18.80
2018-09-21T05:27:45.208Z,18.90
2018-09-21T05:30:14.482Z,18.90
2018-09-21T05:32:44.389Z,18.90
2018-09-21T05:35:17.000Z,18.90
2018-09-21T05:37:47.093Z,18.90
2018-09-21T05:40:16.236Z,19.00
2018-09-21T05:42:45.417Z,19.00
2018-09-21T05:45:14.504Z,19.00
2018-09-21T05:47:43.706Z,19.00
2018-09-21T05:50:12.938Z,19.10
2018-09-21T05:52:42.034Z,19.10
2018-09-21T05:55:11.252Z,19.10
2018-09-21T05:57:40.651Z,19.20
2018-09-21T06:00:10.140Z,19.20
2018-09-21T06:02:39.215Z,19.20
2018-09-21T06:05:08.676Z,19.30
2018-09-21T06:07:38.279Z,19.30
2018-09-21T06:10:07.649Z,19.30
2018-09-21T06:12:36.987Z,19.30
2018-09-21T06:15:06.834Z,19.40
2018-09-21T06:17:35.747Z,19.40
2018-09-21T06:20:12.035Z,19.50
2018-09-21T06:22:44.981Z,19.50
2018-09-21T06:25:06.286Z,19.50
2018-09-21T06:27:35.230Z,19.60
2018-09-21T06:30:04.250Z,19.60
2018-09-21T06:32:33.106Z,19.70
2018-09-21T06:35:02.884Z,19.70
2018-09-21T06:37:32.961Z,19.80
2018-09-21T06:40:02.690Z,19.90
2018-09-21T06:42:33.052Z,19.90
2018-09-21T06:45:02.521Z,19.90
2018-09-21T06:47:32.666Z,20.00
2018-09-21T06:50:01.634Z,20.10
2018-09-21T06:52:30.794Z,20.10
2018-09-21T06:54:59.985Z,20.20
2018-09-21T06:57:29.279Z,20.20
2018-09-21T06:59:58.707Z,20.30
2018-09-21T07:02:27.982Z,20.30
2018-09-21T07:05:01.383Z,20.40
2018-09-21T07:07:30.611Z,20.40
2018-09-21T07:10:00.069Z,20.50
2018-09-21T07:12:29.331Z,20.60
2018-09-21T07:15:02.041Z,20.60
2018-09-21T07:17:31.515Z,20.70
2018-09-21T07:20:00.945Z,20.70
2018-09-21T07:22:30.679Z,20.80
2018-09-21T07:24:59.853Z,20.80
2018-09-21T07:27:28.930Z,20.90
2018-09-21T07:30:00.284Z,21.00
2018-09-21T07:32:29.400Z,21.10
2018-09-21T07:34:58.526Z,21.20
2018-09-21T07:37:27.869Z,21.30
2018-09-21T07:40:04.618Z,21.40
2018-09-21T07:42:56.007Z,21.50
2018-09-21T07:45:25.138Z,21.60
2018-09-21T07:47:54.855Z,21.60
2018-09-21T07:50:24.249Z,21.70
2018-09-21T07:52:53.350Z,21.80
2018-09-21T07:55:27.401Z,21.90
2018-09-21T07:57:56.356Z,21.90
2018-09-21T08:00:25.232Z,21.90
2018-09-21T08:02:54.137Z,21.90
2018-09-21T08:05:28.081Z,21.90
2018-09-21T08:07:57.253Z,21.80
2018-09-21T08:10:26.227Z,21.80
2018-09-21T08:12:55.118Z,21.60
2018-09-21T08:15:24.182Z,21.50
2018-09-21T08:17:53.148Z,21.30
2018-09-21T08:20:22.035Z,21.10
2018-09-21T08:22:51.063Z,20.90
2018-09-21T08:25:20.431Z,20.70
2018-09-21T08:27:49.620Z,20.30
2018-09-21T08:30:18.890Z,20.10
2018-09-21T08:32:49.595Z,20.00
2018-09-21T08:35:19.070Z,19.90
2018-09-21T08:37:48.469Z,19.70
2018-09-21T08:40:17.592Z,19.60
2018-09-21T08:42:46.710Z,19.60
2018-09-21T08:45:21.870Z,19.40
2018-09-21T08:47:50.964Z,19.40
2018-09-21T08:50:20.297Z,19.20
2018-09-21T08:52:49.369Z,19.20
2018-09-21T08:55:18.754Z,19.10
2018-09-21T08:57:47.889Z,19.00
2018-09-21T09:00:17.050Z,19.00
2018-09-21T09:02:46.397Z,18.90
2018-09-21T09:05:15.730Z,18.80
2018-09-21T09:07:44.950Z,18.80
2018-09-21T09:10:14.216Z,18.90
2018-09-21T09:12:43.336Z,18.90
2018-09-21T09:15:12.579Z,19.00
2018-09-21T09:17:41.844Z,18.90
2018-09-21T09:20:11.005Z,18.90
2018-09-21T09:22:40.331Z,18.90
2018-09-21T09:25:09.719Z,18.90
2018-09-21T09:27:39.126Z,19.00
2018-09-21T09:30:08.527Z,19.00
2018-09-21T09:32:47.114Z,18.90
2018-09-21T09:35:16.362Z,18.90
2018-09-21T09:37:45.628Z,18.90
2018-09-21T09:40:14.765Z,18.80
2018-09-21T09:42:45.467Z,18.60
2018-09-21T09:45:14.783Z,17.90
2018-09-21T09:47:43.850Z,17.60
2018-09-21T09:50:13.476Z,17.70
2018-09-21T09:52:43.090Z,17.70
2018-09-21T09:55:12.197Z,17.70
2018-09-21T09:57:41.623Z,17.50
2018-09-21T10:00:13.068Z,17.50
2018-09-21T10:02:46.904Z,17.30
2018-09-21T10:05:16.137Z,17.40
2018-09-21T10:07:45.521Z,17.30
2018-09-21T10:10:14.766Z,17.30
2018-09-21T10:12:43.990Z,17.20
2018-09-21T10:15:13.577Z,17.20
2018-09-21T10:17:42.865Z,17.20
2018-09-21T10:20:12.190Z,17.10
2018-09-21T10:22:41.121Z,17.10
2018-09-21T10:25:10.040Z,17.10
2018-09-21T10:27:39.292Z,17.10
2018-09-21T10:30:08.531Z,17.10
2018-09-21T10:32:37.585Z,17.00
2018-09-21T10:35:06.780Z,16.90
2018-09-21T10:37:35.800Z,17.00
2018-09-21T10:40:05.047Z,16.90
2018-09-21T10:42:34.223Z,16.80
2018-09-21T10:45:03.430Z,16.60
2018-09-21T10:47:32.598Z,16.80
2018-09-21T10:50:09.283Z,16.80
2018-09-21T10:52:38.750Z,16.70
2018-09-21T10:55:07.756Z,16.70
2018-09-21T10:57:36.642Z,16.70
2018-09-21T11:00:06.759Z,16.70
2018-09-21T11:02:35.728Z,16.90
2018-09-21T11:05:04.891Z,17.00
2018-09-21T11:07:34.081Z,17.00
2018-09-21T11:10:03.058Z,17.10
2018-09-21T11:12:32.535Z,17.10
2018-09-21T11:15:01.478Z,17.10
2018-09-21T11:17:30.570Z,17.10
2018-09-21T11:19:59.800Z,17.10
2018-09-21T11:22:28.635Z,17.00
2018-09-21T11:24:57.833Z,17.00
2018-09-21T11:27:26.962Z,17.00
2018-09-21T11:29:55.942Z,17.00
2018-09-21T11:32:25.019Z,17.00
2018-09-21T11:34:54.185Z,17.00
2018-09-21T11:37:23.405Z,17.00
2018-09-21T11:39:52.516Z,16.90
2018-09-21T11:42:21.746Z,16.80
2018-09-21T11:45:08.940Z,16.70
2018-09-21T11:47:38.192Z,16.60
2018-09-21T11:50:07.449Z,16.70
2018-09-21T11:52:36.547Z,16.70
2018-09-21T11:55:05.744Z,16.70
2018-09-21T11:57:35.169Z,16.70
2018-09-21T12:00:04.785Z,16.60
2018-09-21T12:02:33.945Z,16.70
2018-09-21T12:05:04.509Z,16.60
2018-09-21T12:07:33.894Z,16.50
2018-09-21T12:10:03.496Z,16.50
2018-09-21T12:12:32.612Z,16.40
2018-09-21T12:15:01.907Z,16.40
2018-09-21T12:17:31.064Z,16.50
2018-09-21T12:20:00.484Z,16.40
2018-09-21T12:22:30.532Z,16.40
2018-09-21T12:24:59.837Z,16.50
2018-09-21T12:27:29.189Z,16.60
2018-09-21T12:29:58.129Z,16.60
2018-09-21T12:32:27.445Z,16.70
2018-09-21T12:34:56.620Z,16.70
2018-09-21T12:37:25.575Z,16.90
2018-09-21T12:39:58.666Z,16.90
2018-09-21T12:42:27.770Z,16.90
2018-09-21T12:44:57.632Z,17.00
2018-09-21T12:47:26.456Z,16.90
2018-09-21T12:49:55.509Z,16.90
2018-09-21T12:52:25.513Z,17.00
2018-09-21T12:54:54.510Z,17.10
2018-09-21T12:57:38.965Z,16.90
2018-09-21T13:00:11.658Z,16.90
2018-09-21T13:02:40.885Z,17.00
2018-09-21T13:05:09.921Z,17.10
2018-09-21T13:07:39.226Z,17.20
2018-09-21T13:10:08.289Z,17.20
2018-09-21T13:12:37.705Z,17.10
2018-09-21T13:15:06.841Z,17.20
2018-09-21T13:17:35.901Z,17.20
2018-09-21T13:20:05.145Z,17.30
2018-09-21T13:22:34.258Z,17.40
2018-09-21T13:25:03.504Z,17.40
2018-09-21T13:27:32.836Z,17.50
2018-09-21T13:30:02.336Z,17.50
2018-09-21T13:32:31.501Z,17.40
2018-09-21T13:35:00.752Z,17.50
2018-09-21T13:37:29.849Z,17.50
2018-09-21T13:39:59.376Z,17.50
2018-09-21T13:42:28.624Z,17.60
2018-09-21T13:44:58.097Z,17.70
2018-09-21T13:47:27.535Z,17.60
2018-09-21T13:49:57.430Z,17.90
2018-09-21T13:52:26.706Z,17.90
2018-09-21T13:54:55.882Z,17.80
2018-09-21T13:57:24.985Z,18.00
2018-09-21T13:59:54.135Z,17.90
2018-09-21T14:02:23.548Z,17.80
2018-09-21T14:04:52.883Z,17.80
2018-09-21T14:07:22.103Z,17.70
2018-09-21T14:09:51.402Z,17.70
2018-09-21T14:12:20.663Z,17.90
2018-09-21T14:14:50.052Z,18.30
2018-09-21T14:17:19.394Z,18.70
2018-09-21T14:19:48.515Z,19.10
2018-09-21T14:22:17.715Z,19.40
2018-09-21T14:24:47.290Z,19.50
2018-09-21T14:27:16.754Z,19.80
2018-09-21T14:29:45.880Z,20.50
2018-09-21T14:32:16.228Z,20.70
2018-09-21T14:34:45.884Z,20.80
2018-09-21T14:37:15.405Z,21.40
2018-09-21T14:39:45.022Z,21.30
2018-09-21T14:42:14.247Z,21.40
2018-09-21T14:44:44.671Z,21.70
2018-09-21T14:47:14.109Z,21.90
2018-09-21T14:49:43.230Z,21.80
2018-09-21T14:52:13.579Z,22.30
2018-09-21T14:54:43.031Z,22.20
2018-09-21T14:57:12.271Z,22.30
2018-09-21T14:59:41.584Z,22.80
2018-09-21T15:02:10.636Z,23.00
2018-09-21T15:04:39.721Z,22.70
2018-09-21T15:07:08.734Z,22.90
2018-09-21T15:09:38.099Z,22.60
2018-09-21T15:12:07.328Z,23.20
2018-09-21T15:14:36.501Z,23.60
2018-09-21T15:17:05.831Z,23.40
2018-09-21T15:19:34.814Z,23.40
2018-09-21T15:22:03.814Z,23.40
2018-09-21T15:24:32.925Z,23.20
2018-09-21T15:27:02.142Z,22.30
2018-09-21T15:29:31.540Z,21.80
2018-09-21T15:32:00.781Z,21.90
2018-09-21T15:34:29.930Z,22.10
2018-09-21T15:36:59.030Z,21.60
2018-09-21T15:39:28.136Z,21.60
2018-09-21T15:41:57.088Z,21.50
2018-09-21T15:44:31.819Z,21.70
2018-09-21T15:47:00.884Z,22.00
2018-09-21T15:49:32.290Z,21.90
2018-09-21T15:52:01.311Z,22.00
2018-09-21T15:54:30.415Z,21.40
2018-09-21T15:56:59.232Z,21.60
2018-09-21T15:59:28.658Z,21.20
2018-09-21T16:01:57.967Z,20.90
2018-09-21T16:04:27.103Z,20.50
2018-09-21T16:06:56.209Z,20.10
2018-09-21T16:09:25.359Z,20.10
2018-09-21T16:11:58.839Z,20.30
2018-09-21T16:14:28.286Z,19.90
2018-09-21T16:16:57.415Z,19.80
2018-09-21T16:19:26.781Z,19.50
2018-09-21T16:21:56.198Z,19.50
2018-09-21T16:24:25.667Z,19.30
2018-09-21T16:26:54.847Z,19.30
2018-09-21T16:29:24.064Z,19.00
2018-09-21T16:31:53.304Z,18.90
2018-09-21T16:34:22.796Z,18.90
2018-09-21T16:36:54.060Z,18.50
2018-09-21T16:39:23.349Z,18.80
2018-09-21T16:41:52.697Z,18.70
2018-09-21T16:44:22.121Z,18.30
2018-09-21T16:46:51.372Z,18.00
2018-09-21T16:49:20.874Z,17.80
2018-09-21T16:51:50.235Z,17.50
2018-09-21T16:54:19.368Z,17.40
2018-09-21T16:56:48.634Z,17.60
2018-09-21T16:59:18.013Z,17.50
2018-09-21T17:01:47.246Z,17.50
2018-09-21T17:04:16.768Z,17.30
2018-09-21T17:06:48.509Z,17.00
2018-09-21T17:09:18.012Z,16.80
2018-09-21T17:11:47.434Z,16.30
2018-09-21T17:14:17.024Z,16.20
2018-09-21T17:16:47.092Z,16.10
2018-09-21T17:19:18.602Z,16.00
2018-09-21T17:21:47.901Z,15.90
2018-09-21T17:24:17.313Z,15.90
2018-09-21T17:26:46.831Z,15.90
2018-09-21T17:29:15.985Z,15.50
2018-09-21T17:31:45.765Z,15.50
2018-09-21T17:34:15.034Z,15.50
2018-09-21T17:36:44.535Z,15.40
2018-09-21T17:39:14.318Z,15.30
2018-09-21T17:41:43.846Z,15.00
2018-09-21T17:44:13.245Z,14.80
2018-09-21T17:46:42.540Z,14.80
2018-09-21T17:49:11.800Z,14.70
2018-09-21T17:51:41.067Z,14.70
2018-09-21T17:54:10.567Z,14.50
2018-09-21T17:56:39.816Z,14.40
2018-09-21T17:59:09.559Z,14.20
2018-09-21T18:01:39.027Z,14.00
2018-09-21T18:04:08.695Z,13.60
2018-09-21T18:06:37.820Z,13.60
2018-09-21T18:09:09.697Z,13.40
2018-09-21T18:11:39.022Z,13.40
2018-09-21T18:14:08.622Z,13.30
2018-09-21T18:16:38.023Z,13.20
2018-09-21T18:19:11.021Z,13.20
2018-09-21T18:21:48.210Z,13.20
2018-09-21T18:24:19.014Z,13.30
2018-09-21T18:26:48.106Z,13.20
2018-09-21T18:29:18.653Z,13.30
2018-09-21T18:31:47.933Z,13.40
2018-09-21T18:34:17.248Z,13.30
2018-09-21T18:36:47.300Z,13.20
2018-09-21T18:39:16.759Z,13.10
2018-09-21T18:41:45.860Z,13.10
2018-09-21T18:44:15.219Z,13.10
2018-09-21T18:46:46.530Z,13.00
2018-09-21T18:49:15.913Z,13.10
2018-09-21T18:51:45.219Z,13.00
2018-09-21T18:54:14.722Z,13.00
2018-09-21T18:56:44.171Z,13.10
2018-09-21T18:59:13.599Z,13.10
2018-09-21T19:01:43.240Z,13.00
2018-09-21T19:04:12.497Z,13.00
2018-09-21T19:06:41.736Z,12.80
2018-09-21T19:09:12.048Z,12.80
2018-09-21T19:11:40.946Z,12.60
2018-09-21T19:14:10.056Z,12.50
2018-09-21T19:16:39.294Z,12.50
2018-09-21T19:19:10.604Z,12.30
2018-09-21T19:21:46.862Z,12.20
2018-09-21T19:24:19.911Z,12.00
2018-09-21T19:26:48.942Z,12.10
2018-09-21T19:29:18.111Z,11.90
2018-09-21T19:31:47.139Z,11.90
2018-09-21T19:34:17.255Z,11.90
2018-09-21T19:36:46.180Z,11.90
2018-09-21T19:39:15.236Z,12.00
2018-09-21T19:41:44.426Z,12.00
2018-09-21T19:44:13.710Z,11.90
2018-09-21T19:46:42.733Z,11.80
2018-09-21T19:49:11.861Z,11.60
2018-09-21T19:51:41.655Z,11.60
2018-09-21T19:54:10.796Z,11.50
2018-09-21T19:56:40.325Z,11.40
2018-09-21T19:59:11.509Z,11.40
2018-09-21T20:01:41.664Z,11.30
2018-09-21T20:04:10.638Z,11.40
2018-09-21T20:06:40.854Z,11.40
2018-09-21T20:09:12.135Z,11.40
2018-09-21T20:11:42.248Z,11.30
2018-09-21T20:14:12.806Z,11.30
2018-09-21T20:16:42.122Z,11.40
2018-09-21T20:19:11.579Z,11.30
2018-09-21T20:21:41.824Z,11.10
2018-09-21T20:24:11.672Z,11.00
2018-09-21T20:26:40.980Z,11.00
2018-09-21T20:29:10.604Z,11.10
2018-09-21T20:31:45.240Z,11.10
2018-09-21T20:34:14.439Z,11.20
2018-09-21T20:36:43.727Z,11.20
2018-09-21T20:39:12.920Z,11.00
2018-09-21T20:41:42.120Z,10.90
2018-09-21T20:44:11.738Z,10.90
2018-09-21T20:46:40.936Z,10.90
2018-09-21T20:49:17.581Z,10.90
2018-09-21T20:51:46.707Z,10.80
2018-09-21T20:54:16.101Z,10.90
2018-09-21T20:56:45.405Z,10.80
2018-09-21T20:59:14.528Z,10.80
2018-09-21T21:01:43.850Z,10.70
2018-09-21T21:04:24.344Z,10.80
2018-09-21T21:06:53.655Z,10.80
2018-09-21T21:09:22.984Z,10.70
2018-09-21T21:11:52.682Z,10.70
2018-09-21T21:14:22.165Z,10.70
2018-09-21T21:16:51.348Z,10.70
2018-09-21T21:19:20.780Z,10.70
2018-09-21T21:21:50.049Z,10.70
2018-09-21T21:24:19.285Z,10.70
2018-09-21T21:26:48.512Z,10.70
2018-09-21T21:29:17.685Z,10.70
2018-09-21T21:31:53.898Z,10.60
2018-09-21T21:34:23.342Z,10.60
2018-09-21T21:36:52.570Z,10.70
2018-09-21T21:39:21.743Z,10.70
2018-09-21T21:41:50.951Z,10.80
2018-09-21T21:44:33.359Z,10.70
2018-09-21T21:47:02.488Z,10.80
2018-09-21T21:49:31.909Z,10.80
2018-09-21T21:52:01.171Z,10.60
2018-09-21T21:54:30.298Z,10.60
2018-09-21T21:56:59.563Z,10.60
2018-09-21T21:59:34.169Z,10.60
2018-09-21T22:02:03.513Z,10.70
2018-09-21T22:04:32.698Z,10.70
2018-09-21T22:07:12.776Z,10.70
2018-09-21T22:09:41.968Z,10.70
2018-09-21T22:12:16.142Z,10.70
2018-09-21T22:14:45.330Z,10.70
2018-09-21T22:17:14.580Z,10.80
2018-09-21T22:19:43.935Z,10.80
2018-09-21T22:22:13.236Z,10.80
2018-09-21T22:24:42.416Z,10.80
2018-09-21T22:27:11.632Z,10.90
2018-09-21T22:29:40.767Z,10.80
2018-09-21T22:32:10.144Z,10.70
2018-09-21T22:34:39.276Z,10.80
2018-09-21T22:37:08.723Z,10.80
2018-09-21T22:39:38.089Z,10.80
2018-09-21T22:42:07.426Z,10.70
2018-09-21T22:44:36.764Z,10.70
2018-09-21T22:47:14.049Z,10.70
2018-09-21T22:49:43.383Z,10.80
2018-09-21T22:52:12.697Z,10.70
2018-09-21T22:54:42.049Z,10.70
2018-09-21T22:57:11.657Z,10.70
2018-09-21T22:59:41.457Z,10.70
2018-09-21T23:02:10.763Z,10.70
2018-09-21T23:04:39.921Z,10.80
2018-09-21T23:07:09.290Z,10.80
2018-09-21T23:09:38.354Z,10.80
2018-09-21T23:12:07.780Z,10.70
2018-09-21T23:14:42.151Z,10.70
2018-09-21T23:17:11.507Z,10.70
2018-09-21T23:19:40.603Z,10.70
2018-09-21T23:22:09.723Z,10.80
2018-09-21T23:24:38.882Z,10.80
2018-09-21T23:27:19.505Z,10.80
2018-09-21T23:29:48.632Z,10.80
2018-09-21T23:32:17.782Z,10.90
2018-09-21T23:34:46.813Z,10.90
2018-09-21T23:37:16.106Z,10.80
2018-09-21T23:39:45.268Z,10.80
2018-09-21T23:42:14.440Z,10.70
2018-09-21T23:44:43.515Z,10.70
2018-09-21T23:47:12.588Z,10.70
2018-09-21T23:49:47.429Z,10.70
2018-09-21T23:52:16.521Z,10.60
2018-09-21T23:54:45.730Z,10.50
2018-09-21T23:57:14.919Z,10.50
2018-09-21T23:59:43.868Z,10.50
